createdAt,value
2019-06-08T00:00:15.278Z,100244.47
2019-06-08T00:02:43.045Z,100263.41
2019-06-08T00:05:12.592Z,100263.89
2019-06-08T00:07:40.716Z,100263.14
2019-06-08T00:10:08.727Z,100259.37
2019-06-08T00:12:36.518Z,100259.34
2019-06-08T00:15:04.864Z,100261.56
2019-06-08T00:17:38.514Z,100259.22
2019-06-08T00:20:02.430Z,100287.23
2019-06-08T00:22:30.257Z,100294.27
2019-06-08T00:24:58.088Z,100297.90
2019-06-08T00:27:25.994Z,100302.60
2019-06-08T00:29:53.779Z,100310.84
2019-06-08T00:32:22.635Z,100324.21
2019-06-08T00:34:50.715Z,100324.77
2019-06-08T00:37:18.792Z,100337.62
2019-06-08T00:39:46.963Z,100342.02
2019-06-08T00:42:15.104Z,100334.40
2019-06-08T00:44:43.272Z,100342.91
2019-06-08T00:47:11.093Z,100334.96
2019-06-08T00:49:38.863Z,100328.67
2019-06-08T00:52:06.655Z,100330.06
2019-06-08T00:54:34.485Z,100343.18
2019-06-08T00:57:02.301Z,100354.92
2019-06-08T00:59:30.479Z,100357.89
2019-06-08T01:01:58.768Z,100366.31
2019-06-08T01:04:27.165Z,100360.34
2019-06-08T01:06:55.558Z,100360.88
2019-06-08T01:09:24.221Z,100367.16
2019-06-08T01:11:52.504Z,100353.74
2019-06-08T01:14:20.881Z,100340.38
2019-06-08T01:16:49.126Z,100384.11
2019-06-08T01:19:16.894Z,100397.00
2019-06-08T01:21:44.703Z,100410.14
2019-06-08T01:24:12.521Z,100409.84
2019-06-08T01:26:40.462Z,100413.67
2019-06-08T01:29:08.243Z,100384.11
2019-06-08T01:31:36.102Z,100383.00
2019-06-08T01:34:04.009Z,100395.54
2019-06-08T01:36:31.996Z,100386.27
2019-06-08T01:39:01.208Z,100402.08
2019-06-08T01:41:29.641Z,100409.96
2019-06-08T01:43:57.846Z,100429.33
2019-06-08T01:46:25.872Z,100439.67
2019-06-08T01:48:54.157Z,100458.06
2019-06-08T01:51:22.554Z,100470.69
2019-06-08T01:53:50.935Z,100479.47
2019-06-08T01:56:18.737Z,100472.00
2019-06-08T01:58:46.569Z,100465.23
2019-06-08T02:01:14.410Z,100448.59
2019-06-08T02:03:42.241Z,100441.77
2019-06-08T02:06:10.037Z,100412.06
2019-06-08T02:08:37.851Z,100412.80
2019-06-08T02:11:05.727Z,100397.44
2019-06-08T02:13:33.529Z,100406.10
2019-06-08T02:16:01.331Z,100407.28
2019-06-08T02:18:39.807Z,100412.28
2019-06-08T02:20:59.743Z,100421.94
2019-06-08T02:23:28.864Z,100425.16
2019-06-08T02:25:57.099Z,100435.78
2019-06-08T02:28:29.417Z,100444.59
2019-06-08T02:30:57.494Z,100430.79
2019-06-08T02:33:25.286Z,100433.75
2019-06-08T02:35:53.102Z,100431.62
2019-06-08T02:38:20.911Z,100429.16
2019-06-08T02:40:48.681Z,100415.80
2019-06-08T02:43:16.497Z,100423.27
2019-06-08T02:45:44.262Z,100413.19
2019-06-08T02:48:12.090Z,100399.76
2019-06-08T02:50:55.527Z,100375.74
2019-06-08T02:53:25.863Z,100399.73
2019-06-08T02:55:55.010Z,100414.95
2019-06-08T02:58:23.559Z,100424.00
2019-06-08T03:00:53.951Z,100434.08
2019-06-08T03:03:22.474Z,100433.25
2019-06-08T03:05:51.544Z,100438.91
2019-06-08T03:08:20.652Z,100437.00
2019-06-08T03:10:52.325Z,100431.32
2019-06-08T03:13:22.322Z,100436.81
2019-06-08T03:15:50.120Z,100446.98
2019-06-08T03:18:17.957Z,100443.99
2019-06-08T03:20:45.750Z,100446.05
2019-06-08T03:23:13.591Z,100440.22
2019-06-08T03:25:51.798Z,100450.91
2019-06-08T03:28:11.290Z,100443.86
2019-06-08T03:30:47.382Z,100450.78
2019-06-08T03:33:08.998Z,100443.63
2019-06-08T03:35:46.510Z,100442.62
2019-06-08T03:38:06.496Z,100443.03
2019-06-08T03:40:35.797Z,100457.49
2019-06-08T03:43:03.814Z,100474.87
2019-06-08T03:45:34.185Z,100480.36
2019-06-08T03:48:02.086Z,100493.51
2019-06-08T03:50:30.054Z,100491.84
2019-06-08T03:52:57.993Z,100488.85
2019-06-08T03:55:25.829Z,100494.22
2019-06-08T03:57:53.579Z,100504.60
2019-06-08T04:00:21.749Z,100507.81
2019-06-08T04:02:50.291Z,100502.58
2019-06-08T04:05:18.563Z,100499.11
2019-06-08T04:07:46.573Z,100510.58
2019-06-08T04:10:14.885Z,100530.63
2019-06-08T04:12:44.213Z,100520.56
2019-06-08T04:15:13.961Z,100533.05
2019-06-08T04:17:42.186Z,100542.11
2019-06-08T04:20:12.461Z,100551.96
2019-06-08T04:22:46.830Z,100543.26
2019-06-08T04:25:15.582Z,100553.63
2019-06-08T04:27:44.813Z,100563.17
2019-06-08T04:30:14.342Z,100562.61
2019-06-08T04:32:42.858Z,100549.50
2019-06-08T04:35:11.102Z,100556.59
2019-06-08T04:37:40.519Z,100556.67
2019-06-08T04:40:08.717Z,100558.11
2019-06-08T04:42:36.525Z,100557.35
2019-06-08T04:45:06.281Z,100563.08
2019-06-08T04:47:34.148Z,100571.30
2019-06-08T04:50:20.887Z,100578.42
2019-06-08T04:52:31.812Z,100573.23
2019-06-08T04:54:59.591Z,100585.50
2019-06-08T04:57:27.485Z,100585.09
2019-06-08T04:59:55.286Z,100586.08
2019-06-08T05:02:23.106Z,100585.84
2019-06-08T05:04:50.931Z,100592.94
2019-06-08T05:07:18.761Z,100607.69
2019-06-08T05:09:47.168Z,100611.32
2019-06-08T05:12:15.303Z,100626.11
2019-06-08T05:14:43.121Z,100610.48
2019-06-08T05:17:10.973Z,100587.78
2019-06-08T05:19:39.227Z,100571.91
2019-06-08T05:22:07.431Z,100585.06
2019-06-08T05:24:35.277Z,100593.20
2019-06-08T05:27:03.217Z,100576.56
2019-06-08T05:29:31.017Z,100568.25
2019-06-08T05:31:58.858Z,100576.77
2019-06-08T05:34:26.673Z,100580.30
2019-06-08T05:36:54.483Z,100567.18
2019-06-08T05:39:22.265Z,100570.53
2019-06-08T05:41:50.061Z,100571.64
2019-06-08T05:44:18.231Z,100578.20
2019-06-08T05:46:47.464Z,100585.59
2019-06-08T05:49:15.968Z,100597.31
2019-06-08T05:51:43.868Z,100624.05
2019-06-08T05:54:11.637Z,100628.41
2019-06-08T05:56:39.827Z,100619.69
2019-06-08T05:59:08.043Z,100632.81
2019-06-08T06:01:35.852Z,100633.17
2019-06-08T06:04:03.875Z,100641.97
2019-06-08T06:06:31.713Z,100630.83
2019-06-08T06:08:59.523Z,100648.30
2019-06-08T06:11:27.303Z,100672.58
2019-06-08T06:13:55.177Z,100680.48
2019-06-08T06:16:23.018Z,100689.84
2019-06-08T06:18:52.182Z,100692.04
2019-06-08T06:21:20.289Z,100694.70
2019-06-08T06:23:49.239Z,100687.53
2019-06-08T06:26:17.571Z,100690.77
2019-06-08T06:28:45.650Z,100706.39
2019-06-08T06:31:13.846Z,100714.83
2019-06-08T06:33:42.029Z,100714.56
2019-06-08T06:36:10.171Z,100709.83
2019-06-08T06:38:37.974Z,100724.36
2019-06-08T06:41:05.896Z,100722.36
2019-06-08T06:43:33.739Z,100725.99
2019-06-08T06:46:03.713Z,100727.30
2019-06-08T06:48:31.544Z,100733.52
2019-06-08T06:50:59.412Z,100728.21
2019-06-08T06:53:27.216Z,100719.48
2019-06-08T06:55:55.017Z,100725.32
2019-06-08T06:58:22.942Z,100726.53
2019-06-08T07:00:51.524Z,100735.69
2019-06-08T07:03:20.792Z,100750.30
2019-06-08T07:05:49.907Z,100755.08
2019-06-08T07:08:18.052Z,100751.97
2019-06-08T07:10:46.572Z,100765.10
2019-06-08T07:13:14.712Z,100760.05
2019-06-08T07:15:42.752Z,100753.35
2019-06-08T07:18:10.573Z,100751.50
2019-06-08T07:20:38.398Z,100736.85
2019-06-08T07:23:06.170Z,100702.69
2019-06-08T07:25:34.336Z,100694.79
2019-06-08T07:28:02.154Z,100690.38
2019-06-08T07:30:30.012Z,100695.88
2019-06-08T07:32:59.227Z,100728.73
2019-06-08T07:35:27.795Z,100744.71
2019-06-08T07:37:55.658Z,100738.95
2019-06-08T07:40:23.636Z,100733.42
2019-06-08T07:42:53.030Z,100724.71
2019-06-08T07:45:21.271Z,100729.37
2019-06-08T07:47:49.944Z,100738.89
2019-06-08T07:50:18.320Z,100744.12
2019-06-08T07:52:46.260Z,100732.63
2019-06-08T07:55:15.115Z,100744.03
2019-06-08T07:57:43.093Z,100743.81
2019-06-08T08:00:11.047Z,100747.63
2019-06-08T08:02:38.958Z,100757.95
2019-06-08T08:05:08.390Z,100773.69
2019-06-08T08:07:36.311Z,100786.98
2019-06-08T08:10:05.053Z,100775.66
2019-06-08T08:12:32.966Z,100776.55
2019-06-08T08:15:00.897Z,100764.91
2019-06-08T08:17:28.795Z,100761.58
2019-06-08T08:19:57.353Z,100750.38
2019-06-08T08:22:29.520Z,100741.20
2019-06-08T08:25:02.724Z,100754.00
2019-06-08T08:27:28.089Z,100757.05
2019-06-08T08:29:58.622Z,100766.03
2019-06-08T08:32:28.158Z,100760.61
2019-06-08T08:34:58.721Z,100775.85
2019-06-08T08:37:24.878Z,100761.84
2019-06-08T08:39:53.543Z,100784.39
2019-06-08T08:42:21.748Z,100779.52
2019-06-08T08:44:50.957Z,100775.59
2019-06-08T08:47:19.323Z,100781.97
2019-06-08T08:49:47.948Z,100770.47
2019-06-08T08:52:17.510Z,100795.05
2019-06-08T08:54:47.477Z,100798.06
2019-06-08T08:57:17.959Z,100793.88
2019-06-08T08:59:47.706Z,100802.30
2019-06-08T09:02:18.410Z,100795.20
2019-06-08T09:04:47.543Z,100820.31
2019-06-08T09:07:14.624Z,100818.44
2019-06-08T09:09:43.554Z,100811.03
2019-06-08T09:12:11.345Z,100811.47
2019-06-08T09:14:42.928Z,100830.32
2019-06-08T09:17:10.778Z,100816.88
2019-06-08T09:19:38.656Z,100825.86
2019-06-08T09:22:08.588Z,100831.41
2019-06-08T09:24:38.774Z,100834.98
2019-06-08T09:27:08.027Z,100831.60
2019-06-08T09:29:38.601Z,100826.13
2019-06-08T09:32:08.178Z,100839.12
2019-06-08T09:34:38.378Z,100827.27
2019-06-08T09:37:07.842Z,100821.16
2019-06-08T09:39:35.402Z,100822.55
2019-06-08T09:42:04.876Z,100825.23
2019-06-08T09:44:32.988Z,100807.84
2019-06-08T09:47:05.665Z,100813.30
2019-06-08T09:49:30.504Z,100808.28
2019-06-08T09:52:00.414Z,100821.16
2019-06-08T09:54:28.336Z,100836.95
2019-06-08T09:57:00.915Z,100834.34
2019-06-08T09:59:28.359Z,100822.34
2019-06-08T10:02:02.971Z,100824.07
2019-06-08T10:04:28.727Z,100831.61
2019-06-08T10:06:56.849Z,100843.52
2019-06-08T10:09:25.102Z,100849.68
2019-06-08T10:11:54.181Z,100834.11
2019-06-08T10:14:22.460Z,100842.80
2019-06-08T10:16:50.330Z,100842.34
2019-06-08T10:19:18.774Z,100843.99
2019-06-08T10:21:48.193Z,100835.56
2019-06-08T10:24:16.473Z,100830.81
2019-06-08T10:26:44.287Z,100828.38
2019-06-08T10:29:12.126Z,100824.63
2019-06-08T10:31:43.636Z,100818.11
2019-06-08T10:34:11.082Z,100825.27
2019-06-08T10:36:39.372Z,100827.83
2019-06-08T10:39:11.452Z,100833.91
2019-06-08T10:41:38.883Z,100819.98
2019-06-08T10:44:11.160Z,100832.68
2019-06-08T10:46:40.288Z,100835.05
2019-06-08T10:49:09.577Z,100819.55
2019-06-08T10:51:40.171Z,100811.40
2019-06-08T10:54:09.003Z,100802.32
2019-06-08T10:56:38.394Z,100814.28
2019-06-08T10:59:09.955Z,100801.39
2019-06-08T11:01:35.339Z,100807.23
2019-06-08T11:04:03.386Z,100813.66
2019-06-08T11:06:32.863Z,100823.00
2019-06-08T11:09:05.192Z,100815.90
2019-06-08T11:11:31.011Z,100815.27
2019-06-08T11:14:00.940Z,100817.19
2019-06-08T11:16:28.747Z,100826.78
2019-06-08T11:18:59.091Z,100821.61
2019-06-08T11:21:28.619Z,100833.79
2019-06-08T11:24:07.564Z,100825.34
2019-06-08T11:26:28.951Z,100829.44
2019-06-08T11:28:58.608Z,100825.19
2019-06-08T11:31:28.910Z,100837.30
2019-06-08T11:33:58.885Z,100841.15
2019-06-08T11:36:28.193Z,100842.52
2019-06-08T11:38:58.785Z,100848.81
2019-06-08T11:41:27.810Z,100853.11
2019-06-08T11:43:59.605Z,100857.22
2019-06-08T11:46:28.064Z,100855.21
2019-06-08T11:48:57.670Z,100848.34
2019-06-08T11:51:24.989Z,100842.05
2019-06-08T11:53:53.049Z,100846.55
2019-06-08T11:56:22.424Z,100840.69
2019-06-08T11:58:53.378Z,100834.78
2019-06-08T12:01:21.242Z,100852.45
2019-06-08T12:03:49.067Z,100852.36
2019-06-08T12:06:18.597Z,100847.98
2019-06-08T12:08:47.326Z,100857.12
2019-06-08T12:11:17.260Z,100849.25
2019-06-08T12:13:46.920Z,100845.55
2019-06-08T12:16:19.718Z,100853.76
2019-06-08T12:18:44.777Z,100847.06
2019-06-08T12:21:13.319Z,100863.28
2019-06-08T12:23:42.414Z,100852.11
2019-06-08T12:26:10.268Z,100854.98
2019-06-08T12:28:38.226Z,100866.85
2019-06-08T12:31:11.408Z,100861.19
2019-06-08T12:33:38.953Z,100860.31
2019-06-08T12:36:08.521Z,100862.44
2019-06-08T12:38:37.921Z,100871.87
2019-06-08T12:41:07.938Z,100866.39
2019-06-08T12:43:34.874Z,100874.14
2019-06-08T12:46:02.698Z,100862.80
2019-06-08T12:48:30.493Z,100861.06
2019-06-08T12:50:58.330Z,100865.58
2019-06-08T12:53:28.152Z,100870.89
2019-06-08T12:55:57.901Z,100862.80
2019-06-08T12:58:27.593Z,100869.65
2019-06-08T13:00:57.845Z,100866.06
2019-06-08T13:03:25.034Z,100888.07
2019-06-08T13:05:52.842Z,100888.09
2019-06-08T13:08:21.853Z,100875.89
2019-06-08T13:10:50.096Z,100889.98
2019-06-08T13:13:20.002Z,100877.34
2019-06-08T13:15:48.402Z,100877.03
2019-06-08T13:18:17.678Z,100873.52
2019-06-08T13:20:51.471Z,100877.30
2019-06-08T13:23:19.637Z,100882.19
2019-06-08T13:25:48.030Z,100888.83
2019-06-08T13:28:19.402Z,100893.45
2019-06-08T13:30:47.697Z,100890.66
2019-06-08T13:33:16.198Z,100899.27
2019-06-08T13:35:44.406Z,100883.75
2019-06-08T13:38:12.662Z,100907.11
2019-06-08T13:40:40.852Z,100918.25
2019-06-08T13:43:08.697Z,100900.89
2019-06-08T13:45:39.106Z,100892.28
2019-06-08T13:48:08.725Z,100903.12
2019-06-08T13:50:35.989Z,100910.02
2019-06-08T13:53:03.806Z,100894.22
2019-06-08T13:55:47.726Z,100905.22
2019-06-08T13:58:01.310Z,100897.75
2019-06-08T14:00:38.135Z,100897.50
2019-06-08T14:03:08.417Z,100898.80
2019-06-08T14:05:38.823Z,100895.79
2019-06-08T14:08:10.610Z,100914.20
2019-06-08T14:10:38.868Z,100898.43
2019-06-08T14:13:07.991Z,100897.26
2019-06-08T14:15:37.896Z,100883.95
2019-06-08T14:18:05.555Z,100907.42
2019-06-08T14:20:34.527Z,100902.64
2019-06-08T14:23:03.349Z,100915.49
2019-06-08T14:25:46.643Z,100908.93
2019-06-08T14:28:00.898Z,100901.05
2019-06-08T14:30:32.888Z,100897.23
2019-06-08T14:32:58.427Z,100895.53
2019-06-08T14:35:27.151Z,100899.38
2019-06-08T14:37:57.832Z,100907.95
2019-06-08T14:40:31.025Z,100908.93
2019-06-08T14:42:55.316Z,100907.27
2019-06-08T14:45:23.124Z,100906.12
2019-06-08T14:47:50.975Z,100897.66
2019-06-08T14:50:21.138Z,100907.56
2019-06-08T14:52:50.423Z,100900.67
2019-06-08T14:55:20.066Z,100902.34
2019-06-08T14:57:48.258Z,100901.94
2019-06-08T15:00:22.595Z,100903.54
2019-06-08T15:02:50.849Z,100904.98
2019-06-08T15:05:19.918Z,100902.08
2019-06-08T15:07:48.666Z,100902.30
2019-06-08T15:10:18.316Z,100911.66
2019-06-08T15:12:48.756Z,100903.94
2019-06-08T15:15:18.319Z,100897.70
2019-06-08T15:17:47.731Z,100908.56
2019-06-08T15:20:17.597Z,100905.43
2019-06-08T15:22:45.589Z,100898.66
2019-06-08T15:25:13.417Z,100899.08
2019-06-08T15:27:41.226Z,100904.16
2019-06-08T15:30:10.511Z,100898.34
2019-06-08T15:32:38.774Z,100911.27
2019-06-08T15:35:08.089Z,100907.27
2019-06-08T15:37:37.952Z,100909.38
2019-06-08T15:40:07.809Z,100913.25
2019-06-08T15:42:36.001Z,100914.45
2019-06-08T15:45:08.088Z,100916.98
2019-06-08T15:47:35.014Z,100916.64
2019-06-08T15:50:03.155Z,100914.91
2019-06-08T15:52:32.656Z,100904.97
2019-06-08T15:55:01.546Z,100908.55
2019-06-08T15:57:34.041Z,100913.90
2019-06-08T15:59:59.574Z,100924.45
2019-06-08T16:02:27.629Z,100912.89
2019-06-08T16:04:55.838Z,100911.81
2019-06-08T16:07:28.572Z,100920.23
2019-06-08T16:09:53.446Z,100919.37
2019-06-08T16:12:21.260Z,100917.16
2019-06-08T16:14:49.070Z,100919.34
2019-06-08T16:17:16.856Z,100910.02
2019-06-08T16:19:44.656Z,100914.32
2019-06-08T16:22:12.510Z,100909.59
2019-06-08T16:24:40.395Z,100906.59
2019-06-08T16:27:08.188Z,100901.73
2019-06-08T16:29:36.055Z,100908.69
2019-06-08T16:32:03.925Z,100909.30
2019-06-08T16:34:31.796Z,100909.23
2019-06-08T16:36:59.729Z,100903.66
2019-06-08T16:39:28.570Z,100908.34
2019-06-08T16:41:56.900Z,100915.85
2019-06-08T16:44:24.678Z,100915.84
2019-06-08T16:46:52.509Z,100911.86
2019-06-08T16:49:20.324Z,100913.55
2019-06-08T16:51:48.212Z,100915.80
2019-06-08T16:54:16.090Z,100915.94
2019-06-08T16:56:43.877Z,100918.16
2019-06-08T16:59:11.722Z,100917.05
2019-06-08T17:01:39.503Z,100910.11
2019-06-08T17:04:07.368Z,100912.14
2019-06-08T17:06:35.327Z,100920.06
2019-06-08T17:09:04.728Z,100924.33
2019-06-08T17:11:33.685Z,100915.27
2019-06-08T17:14:01.924Z,100919.52
2019-06-08T17:16:30.039Z,100918.23
2019-06-08T17:18:58.248Z,100917.95
2019-06-08T17:21:26.089Z,100920.25
2019-06-08T17:23:53.875Z,100918.23
2019-06-08T17:26:21.635Z,100924.10
2019-06-08T17:28:49.594Z,100926.66
2019-06-08T17:31:17.510Z,100922.73
2019-06-08T17:33:45.330Z,100915.14
2019-06-08T17:36:13.164Z,100924.61
2019-06-08T17:38:41.462Z,100920.47
2019-06-08T17:41:09.784Z,100918.05
2019-06-08T17:43:38.223Z,100929.30
2019-06-08T17:46:06.334Z,100929.69
2019-06-08T17:48:34.916Z,100931.22
2019-06-08T17:51:03.351Z,100926.34
2019-06-08T17:53:31.205Z,100934.08
2019-06-08T17:55:59.065Z,100931.94
2019-06-08T17:58:27.016Z,100946.05
2019-06-08T18:00:54.821Z,100939.27
2019-06-08T18:03:22.751Z,100945.33
2019-06-08T18:05:50.585Z,100949.94
2019-06-08T18:08:18.400Z,100953.05
2019-06-08T18:10:48.191Z,100948.66
2019-06-08T18:13:18.064Z,100958.00
2019-06-08T18:15:48.077Z,100956.66
2019-06-08T18:18:17.648Z,100957.76
2019-06-08T18:20:45.343Z,100962.99
2019-06-08T18:23:13.204Z,100963.28
2019-06-08T18:25:42.115Z,100967.41
2019-06-08T18:28:13.598Z,100977.84
2019-06-08T18:30:42.913Z,100987.73
2019-06-08T18:33:10.405Z,100978.41
2019-06-08T18:35:41.234Z,100988.77
2019-06-08T18:38:08.029Z,100989.91
2019-06-08T18:40:37.910Z,100995.35
2019-06-08T18:43:07.580Z,100993.13
2019-06-08T18:45:38.073Z,100998.61
2019-06-08T18:48:07.142Z,101001.30
2019-06-08T18:50:38.054Z,101008.98
2019-06-08T18:53:07.116Z,101007.38
2019-06-08T18:55:36.278Z,101013.09
2019-06-08T18:58:17.634Z,101009.50
2019-06-08T19:00:39.979Z,101014.66
2019-06-08T19:03:08.455Z,101020.69
2019-06-08T19:05:40.300Z,101023.70
2019-06-08T19:08:09.483Z,101026.15
2019-06-08T19:10:40.693Z,101023.36
2019-06-08T19:13:08.969Z,101034.53
2019-06-08T19:15:42.254Z,101037.19
2019-06-08T19:18:08.144Z,101038.97
2019-06-08T19:20:40.783Z,101045.02
2019-06-08T19:23:09.130Z,101046.92
2019-06-08T19:25:42.152Z,101047.72
2019-06-08T19:28:07.794Z,101052.82
2019-06-08T19:30:39.377Z,101056.39
2019-06-08T19:33:07.332Z,101060.27
2019-06-08T19:35:35.668Z,101060.23
2019-06-08T19:38:03.477Z,101067.80
2019-06-08T19:40:31.262Z,101075.84
2019-06-08T19:43:01.394Z,101075.49
2019-06-08T19:45:28.799Z,101074.07
2019-06-08T19:47:57.726Z,101080.50
2019-06-08T19:50:28.739Z,101082.17
2019-06-08T19:52:57.837Z,101086.07
2019-06-08T19:55:25.551Z,101090.44
2019-06-08T19:57:53.387Z,101098.02
2019-06-08T20:00:21.750Z,101099.59
2019-06-08T20:02:53.367Z,101102.17
2019-06-08T20:05:19.441Z,101110.00
2019-06-08T20:07:47.290Z,101108.88
2019-06-08T20:10:17.632Z,101107.73
2019-06-08T20:12:46.052Z,101112.03
2019-06-08T20:15:15.918Z,101112.23
2019-06-08T20:17:48.507Z,101115.48
2019-06-08T20:20:18.188Z,101110.72
2019-06-08T20:22:48.735Z,101119.86
2019-06-08T20:25:17.736Z,101123.40
2019-06-08T20:27:48.434Z,101123.77
2019-06-08T20:30:17.389Z,101123.58
2019-06-08T20:32:47.205Z,101124.49
2019-06-08T20:35:17.320Z,101129.56
2019-06-08T20:37:45.750Z,101125.64
2019-06-08T20:40:14.446Z,101125.06
2019-06-08T20:42:44.070Z,101130.59
2019-06-08T20:45:12.900Z,101133.86
2019-06-08T20:47:42.057Z,101130.85
2019-06-08T20:50:10.605Z,101131.82
2019-06-08T20:52:38.434Z,101133.70
2019-06-08T20:55:07.779Z,101133.62
2019-06-08T20:57:36.014Z,101133.56
2019-06-08T21:00:09.133Z,101145.19
2019-06-08T21:02:37.223Z,101147.92
2019-06-08T21:05:07.663Z,101142.89
2019-06-08T21:07:35.316Z,101148.44
2019-06-08T21:10:04.434Z,101156.57
2019-06-08T21:12:32.228Z,101151.19
2019-06-08T21:15:00.126Z,101151.66
2019-06-08T21:17:27.979Z,101149.03
2019-06-08T21:19:57.953Z,101151.58
2019-06-08T21:22:27.590Z,101151.16
2019-06-08T21:24:59.735Z,101152.67
2019-06-08T21:27:24.918Z,101154.86
2019-06-08T21:29:59.872Z,101161.39
2019-06-08T21:32:22.505Z,101162.05
2019-06-08T21:34:52.152Z,101155.63
2019-06-08T21:37:20.023Z,101158.80
2019-06-08T21:39:50.495Z,101157.69
2019-06-08T21:42:17.547Z,101153.88
2019-06-08T21:44:47.650Z,101151.50
2019-06-08T21:47:15.113Z,101148.39
2019-06-08T21:49:43.036Z,101148.95
2019-06-08T21:52:10.846Z,101149.91
2019-06-08T21:54:38.655Z,101156.59
2019-06-08T21:57:09.020Z,101153.25
2019-06-08T21:59:37.860Z,101155.81
2019-06-08T22:02:08.339Z,101146.27
2019-06-08T22:04:37.230Z,101152.55
2019-06-08T22:07:07.083Z,101157.97
2019-06-08T22:09:37.312Z,101155.16
2019-06-08T22:12:07.090Z,101149.95
2019-06-08T22:14:34.810Z,101148.87
2019-06-08T22:17:03.262Z,101148.94
2019-06-08T22:19:31.820Z,101157.83
2019-06-08T22:22:01.794Z,101151.56
2019-06-08T22:24:29.287Z,101153.35
2019-06-08T22:26:58.568Z,101156.08
2019-06-08T22:29:27.604Z,101154.89
2019-06-08T22:31:55.906Z,101159.33
2019-06-08T22:34:23.751Z,101161.63
2019-06-08T22:36:52.592Z,101158.42
2019-06-08T22:39:21.241Z,101155.28
2019-06-08T22:41:49.040Z,101159.89
2019-06-08T22:44:17.745Z,101160.34
2019-06-08T22:46:47.838Z,101164.92
2019-06-08T22:49:15.756Z,101165.34
2019-06-08T22:51:43.559Z,101160.59
2019-06-08T22:54:11.343Z,101162.76
2019-06-08T22:56:39.438Z,101164.50
2019-06-08T22:59:09.168Z,101164.78
2019-06-08T23:01:38.361Z,101168.86
2019-06-08T23:04:09.003Z,101171.48
2019-06-08T23:06:38.470Z,101173.44
2019-06-08T23:09:08.739Z,101165.99
2019-06-08T23:11:37.567Z,101171.25
2019-06-08T23:14:12.734Z,101172.74
2019-06-08T23:16:35.535Z,101174.04
2019-06-08T23:19:03.464Z,101179.00
2019-06-08T23:21:31.267Z,101175.16
2019-06-08T23:24:00.993Z,101165.71
2019-06-08T23:26:30.147Z,101165.59
2019-06-08T23:28:58.125Z,101172.20
2019-06-08T23:31:28.961Z,101163.55
2019-06-08T23:33:57.164Z,101168.34
2019-06-08T23:36:51.616Z,101165.25
2019-06-08T23:38:55.182Z,101167.08
2019-06-08T23:41:22.960Z,101165.50
2019-06-08T23:43:51.587Z,101164.59
2019-06-08T23:46:19.397Z,101167.64
2019-06-08T23:48:48.448Z,101170.84
2019-06-08T23:51:18.125Z,101177.31
2019-06-08T23:53:47.762Z,101178.56
2019-06-08T23:56:18.135Z,101186.89
2019-06-08T23:58:47.998Z,101184.77
